Ardoch, North Dakota
Current Conditions -  °F | °C
As of 10:15 AM on Monday 24 Nov 2014 (Local Time) from KGAF Reporting Station
Few Clouds Few Clouds  
Wind Chill: -15°   Ceiling: Unl
Heat Index:   Visibility: 8mi
Dew Point:   Wind: 24mph
Humidity: 79%   Direction: 350°N
Pressure: 29.8"   Gusts: 35mph
Location:  48.21°N, 97.34°W
Report Text: KGAF 241615Z AUTO 35021G30KT 8SM FEW008 M14/M17 A2980 RMK AO2
Loading
Personal Weather Stations






























Interactive Weather Map New forecast layout! Learn more

10-Day Weather Forecast

Advertisements
Track Severe Weather on mobile